createdAt,value
2024-03-12T00:00:16.788Z,870.00
2024-03-12T00:01:16.840Z,872.00
2024-03-12T00:02:16.732Z,871.00
2024-03-12T00:03:16.737Z,874.00
2024-03-12T00:04:16.758Z,875.00
2024-03-12T00:05:16.732Z,873.00
2024-03-12T00:06:16.732Z,875.00
2024-03-12T00:07:16.810Z,875.00
2024-03-12T00:08:16.759Z,872.00
2024-03-12T00:09:16.742Z,868.00
2024-03-12T00:10:16.942Z,864.00
2024-03-12T00:11:16.763Z,865.00
2024-03-12T00:12:16.765Z,873.00
2024-03-12T00:13:16.749Z,869.00
2024-03-12T00:14:16.757Z,870.00
2024-03-12T00:15:16.769Z,867.00
2024-03-12T00:16:16.787Z,862.00
2024-03-12T00:17:16.764Z,862.00
2024-03-12T00:18:16.769Z,861.00
2024-03-12T00:19:16.774Z,861.00
2024-03-12T00:20:17.686Z,862.00
2024-03-12T00:21:16.793Z,863.00
2024-03-12T00:22:16.759Z,865.00
2024-03-12T00:23:16.766Z,865.00
2024-03-12T00:24:16.772Z,864.00
2024-03-12T00:25:16.755Z,865.00
2024-03-12T00:26:16.771Z,866.00
2024-03-12T00:27:16.758Z,865.00
2024-03-12T00:28:16.777Z,863.00
2024-03-12T00:29:16.779Z,861.00
2024-03-12T00:30:16.763Z,862.00
2024-03-12T00:31:16.766Z,860.00
2024-03-12T00:32:16.773Z,859.00
2024-03-12T00:33:16.812Z,860.00
2024-03-12T00:34:16.807Z,859.00
2024-03-12T00:35:16.823Z,863.00
2024-03-12T00:36:16.792Z,864.00
2024-03-12T00:37:16.785Z,866.00
2024-03-12T00:38:16.809Z,862.00
2024-03-12T00:39:16.794Z,861.00
2024-03-12T00:40:16.907Z,860.00
2024-03-12T00:41:16.798Z,862.00
2024-03-12T00:42:16.806Z,862.00
2024-03-12T00:43:16.810Z,861.00
2024-03-12T00:44:16.881Z,858.00
2024-03-12T00:45:16.796Z,861.00
2024-03-12T00:46:16.842Z,860.00
2024-03-12T00:47:16.808Z,863.00
2024-03-12T00:48:16.805Z,861.00
2024-03-12T00:49:16.823Z,864.00
2024-03-12T00:50:16.832Z,865.00
2024-03-12T00:51:16.799Z,864.00
2024-03-12T00:52:16.815Z,863.00
2024-03-12T00:53:16.799Z,861.00
2024-03-12T00:54:16.805Z,864.00
2024-03-12T00:55:16.806Z,866.00
2024-03-12T00:56:16.812Z,868.00
2024-03-12T00:57:16.802Z,867.00
2024-03-12T00:58:16.840Z,865.00
2024-03-12T00:59:16.807Z,865.00
2024-03-12T01:00:16.826Z,865.00
2024-03-12T01:01:17.001Z,863.00
2024-03-12T01:02:16.909Z,861.00
2024-03-12T01:03:16.912Z,861.00
2024-03-12T01:04:16.949Z,859.00
2024-03-12T01:05:16.994Z,859.00
2024-03-12T01:06:17.014Z,863.00
2024-03-12T01:07:17.012Z,865.00
2024-03-12T01:08:17.106Z,863.00
2024-03-12T01:09:17.083Z,866.00
2024-03-12T01:10:17.077Z,869.00
2024-03-12T01:11:17.166Z,863.00
2024-03-12T01:12:17.103Z,863.00
2024-03-12T01:13:17.177Z,859.00
2024-03-12T01:14:17.194Z,856.00
2024-03-12T01:15:17.258Z,856.00
2024-03-12T01:16:17.331Z,857.00
2024-03-12T01:17:17.256Z,860.00
2024-03-12T01:18:17.372Z,859.00
2024-03-12T01:19:17.283Z,865.00
2024-03-12T01:20:17.335Z,864.00
2024-03-12T01:21:17.476Z,863.00
2024-03-12T01:22:17.398Z,859.00
2024-03-12T01:23:17.416Z,863.00
2024-03-12T01:24:17.453Z,860.00
2024-03-12T01:25:17.496Z,860.00
2024-03-12T01:26:17.518Z,862.00
2024-03-12T01:27:17.564Z,862.00
2024-03-12T01:28:17.673Z,860.00
2024-03-12T01:29:17.677Z,858.00
2024-03-12T01:30:17.953Z,853.00
2024-03-12T01:31:17.892Z,851.00
2024-03-12T01:32:17.877Z,852.00
2024-03-12T01:33:17.931Z,852.00
2024-03-12T01:34:17.997Z,849.00
2024-03-12T01:35:18.065Z,848.00
2024-03-12T01:36:18.117Z,849.00
2024-03-12T01:37:18.185Z,849.00
2024-03-12T01:38:18.258Z,850.00
2024-03-12T01:39:18.327Z,849.00
2024-03-12T01:40:18.405Z,847.00
2024-03-12T01:41:18.467Z,842.00
2024-03-12T01:42:18.531Z,843.00
2024-03-12T01:43:18.651Z,845.00
2024-03-12T01:44:18.664Z,847.00
2024-03-12T01:45:18.699Z,845.00
2024-03-12T01:46:18.753Z,846.00
2024-03-12T01:47:18.802Z,846.00
2024-03-12T01:48:18.867Z,846.00
2024-03-12T01:49:18.939Z,849.00
2024-03-12T01:50:19.008Z,848.00
2024-03-12T01:51:19.017Z,849.00
2024-03-12T01:52:19.097Z,847.00
2024-03-12T01:53:19.121Z,846.00
2024-03-12T01:54:19.171Z,844.00
2024-03-12T01:55:22.510Z,843.00
2024-03-12T01:56:19.223Z,843.00
2024-03-12T01:57:19.210Z,843.00
2024-03-12T01:58:19.231Z,842.00
2024-03-12T01:59:19.219Z,844.00
2024-03-12T02:00:19.218Z,843.00
2024-03-12T02:01:19.265Z,840.00
2024-03-12T02:02:19.231Z,837.00
2024-03-12T02:03:19.209Z,836.00
2024-03-12T02:04:19.225Z,836.00
2024-03-12T02:05:19.227Z,840.00
2024-03-12T02:06:19.228Z,841.00
2024-03-12T02:07:19.221Z,841.00
2024-03-12T02:08:19.248Z,839.00
2024-03-12T02:09:19.228Z,837.00
2024-03-12T02:10:19.226Z,836.00
2024-03-12T02:11:19.276Z,839.00
2024-03-12T02:12:19.229Z,843.00
2024-03-12T02:13:19.252Z,842.00
2024-03-12T02:14:19.224Z,840.00
2024-03-12T02:15:19.491Z,838.00
2024-03-12T02:16:19.248Z,841.00
2024-03-12T02:17:19.225Z,844.00
2024-03-12T02:18:19.292Z,843.00
2024-03-12T02:19:19.234Z,838.00
2024-03-12T02:20:19.238Z,834.00
2024-03-12T02:21:19.226Z,835.00
2024-03-12T02:22:19.239Z,835.00
2024-03-12T02:23:19.227Z,835.00
2024-03-12T02:24:19.251Z,838.00
2024-03-12T02:25:19.247Z,835.00
2024-03-12T02:26:19.250Z,834.00
2024-03-12T02:27:19.244Z,836.00
2024-03-12T02:28:19.245Z,837.00
2024-03-12T02:29:19.239Z,836.00
2024-03-12T02:30:19.370Z,837.00
2024-03-12T02:31:19.263Z,834.00
2024-03-12T02:32:19.256Z,837.00
2024-03-12T02:33:19.310Z,839.00
2024-03-12T02:34:19.270Z,840.00
2024-03-12T02:35:19.239Z,840.00
2024-03-12T02:36:19.254Z,841.00
2024-03-12T02:37:19.245Z,840.00
2024-03-12T02:38:19.273Z,835.00
2024-03-12T02:39:19.258Z,830.00
2024-03-12T02:40:19.530Z,829.00
2024-03-12T02:41:19.273Z,830.00
2024-03-12T02:42:19.264Z,830.00
2024-03-12T02:43:19.257Z,828.00
2024-03-12T02:44:19.265Z,828.00
2024-03-12T02:45:19.252Z,828.00
2024-03-12T02:46:19.278Z,828.00
2024-03-12T02:47:19.259Z,831.00
2024-03-12T02:48:19.324Z,829.00
2024-03-12T02:49:19.269Z,834.00
2024-03-12T02:50:19.278Z,833.00
2024-03-12T02:51:19.281Z,831.00
2024-03-12T02:52:19.310Z,827.00
2024-03-12T02:53:19.330Z,829.00
2024-03-12T02:54:19.375Z,829.00
2024-03-12T02:55:19.382Z,832.00
2024-03-12T02:56:19.424Z,834.00
2024-03-12T02:57:19.456Z,839.00
2024-03-12T02:58:19.500Z,837.00
2024-03-12T02:59:19.514Z,836.00
2024-03-12T03:00:19.577Z,836.00
2024-03-12T03:01:19.654Z,835.00
2024-03-12T03:02:19.626Z,834.00
2024-03-12T03:03:19.617Z,834.00
2024-03-12T03:04:19.664Z,834.00
2024-03-12T03:05:19.684Z,834.00
2024-03-12T03:06:19.711Z,835.00
2024-03-12T03:07:19.742Z,837.00
2024-03-12T03:08:19.772Z,836.00
2024-03-12T03:09:19.781Z,837.00
2024-03-12T03:10:19.839Z,836.00
2024-03-12T03:11:19.865Z,836.00
2024-03-12T03:12:19.830Z,834.00
2024-03-12T03:13:19.850Z,832.00
2024-03-12T03:14:19.886Z,828.00
2024-03-12T03:15:19.896Z,825.00
2024-03-12T03:16:19.938Z,823.00
2024-03-12T03:17:19.929Z,822.00
2024-03-12T03:18:19.971Z,825.00
2024-03-12T03:19:19.983Z,822.00
2024-03-12T03:20:20.004Z,820.00
2024-03-12T03:21:20.019Z,821.00
2024-03-12T03:22:20.019Z,822.00
2024-03-12T03:23:20.055Z,823.00
2024-03-12T03:24:20.075Z,822.00
2024-03-12T03:25:20.154Z,821.00
2024-03-12T03:26:20.107Z,819.00
2024-03-12T03:27:20.104Z,817.00
2024-03-12T03:28:20.100Z,815.00
2024-03-12T03:29:20.134Z,814.00
2024-03-12T03:30:20.574Z,815.00
2024-03-12T03:31:20.147Z,815.00
2024-03-12T03:32:20.168Z,816.00
2024-03-12T03:33:20.186Z,816.00
2024-03-12T03:34:20.380Z,815.00
2024-03-12T03:35:20.265Z,816.00
2024-03-12T03:36:20.269Z,818.00
2024-03-12T03:37:20.258Z,816.00
2024-03-12T03:38:20.277Z,813.00
2024-03-12T03:39:20.300Z,813.00
2024-03-12T03:40:20.428Z,812.00
2024-03-12T03:41:20.328Z,809.00
2024-03-12T03:42:20.354Z,808.00
2024-03-12T03:43:20.358Z,805.00
2024-03-12T03:44:20.401Z,801.00
2024-03-12T03:45:20.440Z,803.00
2024-03-12T03:46:20.437Z,803.00
2024-03-12T03:47:20.439Z,808.00
2024-03-12T03:48:20.457Z,805.00
2024-03-12T03:49:20.478Z,807.00
2024-03-12T03:50:20.460Z,803.00
2024-03-12T03:51:20.494Z,802.00
2024-03-12T03:52:20.503Z,801.00
2024-03-12T03:53:20.512Z,802.00
2024-03-12T03:54:20.527Z,803.00
2024-03-12T03:55:20.559Z,802.00
2024-03-12T03:56:20.560Z,803.00
2024-03-12T03:57:20.681Z,804.00
2024-03-12T03:58:20.600Z,804.00
2024-03-12T03:59:20.654Z,805.00
2024-03-12T04:00:20.624Z,804.00
2024-03-12T04:01:20.804Z,802.00
2024-03-12T04:02:20.701Z,803.00
2024-03-12T04:03:20.716Z,804.00
2024-03-12T04:04:20.760Z,800.00
2024-03-12T04:05:20.743Z,801.00
2024-03-12T04:06:20.752Z,799.00
2024-03-12T04:07:20.861Z,799.00
2024-03-12T04:08:20.774Z,800.00
2024-03-12T04:09:20.836Z,802.00
2024-03-12T04:10:20.844Z,798.00
2024-03-12T04:11:20.894Z,796.00
2024-03-12T04:12:20.884Z,796.00
2024-03-12T04:13:20.961Z,799.00
2024-03-12T04:14:20.954Z,799.00
2024-03-12T04:15:20.980Z,800.00
2024-03-12T04:16:20.995Z,799.00
2024-03-12T04:17:21.085Z,798.00
2024-03-12T04:18:21.041Z,798.00
2024-03-12T04:19:21.057Z,799.00
2024-03-12T04:20:21.053Z,799.00
2024-03-12T04:21:21.063Z,799.00
2024-03-12T04:22:21.078Z,797.00
2024-03-12T04:23:21.150Z,799.00
2024-03-12T04:24:21.106Z,801.00
2024-03-12T04:25:21.141Z,802.00
2024-03-12T04:26:21.181Z,801.00
2024-03-12T04:27:21.170Z,802.00
2024-03-12T04:28:21.151Z,803.00
2024-03-12T04:29:21.168Z,805.00
2024-03-12T04:30:21.194Z,801.00
2024-03-12T04:31:21.217Z,800.00
2024-03-12T04:32:21.224Z,799.00
2024-03-12T04:33:21.373Z,798.00
2024-03-12T04:34:21.263Z,799.00
2024-03-12T04:35:21.305Z,796.00
2024-03-12T04:36:21.299Z,798.00
2024-03-12T04:37:21.329Z,798.00
2024-03-12T04:38:21.336Z,796.00
2024-03-12T04:39:21.370Z,796.00
2024-03-12T04:40:29.007Z,787.00
2024-03-12T04:41:28.926Z,795.00
2024-03-12T04:42:28.970Z,799.00
2024-03-12T04:43:28.970Z,798.00
2024-03-12T04:44:28.924Z,797.00
2024-03-12T04:45:28.944Z,797.00
2024-03-12T04:46:28.928Z,802.00
2024-03-12T04:47:28.950Z,799.00
2024-03-12T04:48:29.002Z,800.00
2024-03-12T04:49:28.922Z,799.00
2024-03-12T04:50:28.912Z,799.00
2024-03-12T04:51:28.948Z,797.00
2024-03-12T04:52:28.911Z,796.00
2024-03-12T04:53:28.925Z,792.00
2024-03-12T04:54:28.964Z,791.00
2024-03-12T04:55:28.923Z,788.00
2024-03-12T04:56:28.919Z,785.00
2024-03-12T04:57:28.941Z,789.00
2024-03-12T04:58:28.919Z,790.00
2024-03-12T04:59:28.937Z,788.00
2024-03-12T05:00:31.452Z,789.00
2024-03-12T05:01:28.994Z,787.00
2024-03-12T05:02:28.925Z,786.00
2024-03-12T05:03:28.995Z,787.00
2024-03-12T05:04:29.003Z,784.00
2024-03-12T05:05:28.960Z,781.00
2024-03-12T05:06:29.006Z,784.00
2024-03-12T05:07:28.946Z,786.00
2024-03-12T05:08:29.165Z,786.00
2024-03-12T05:09:28.974Z,788.00
2024-03-12T05:10:28.950Z,790.00
2024-03-12T05:11:28.982Z,790.00
2024-03-12T05:12:28.968Z,789.00
2024-03-12T05:13:28.973Z,787.00
2024-03-12T05:14:28.967Z,788.00
2024-03-12T05:15:29.064Z,789.00
2024-03-12T05:16:28.962Z,785.00
2024-03-12T05:17:28.965Z,783.00
2024-03-12T05:18:28.993Z,781.00
2024-03-12T05:19:28.974Z,781.00
2024-03-12T05:20:28.974Z,785.00
2024-03-12T05:21:31.857Z,777.00
2024-03-12T05:22:28.973Z,775.00
2024-03-12T05:23:28.973Z,774.00
2024-03-12T05:24:28.987Z,777.00
2024-03-12T05:25:28.983Z,779.00
2024-03-12T05:26:28.989Z,778.00
2024-03-12T05:27:29.049Z,775.00
2024-03-12T05:28:28.975Z,774.00
2024-03-12T05:29:28.988Z,773.00
2024-03-12T05:30:28.998Z,771.00
2024-03-12T05:31:28.990Z,772.00
2024-03-12T05:32:28.979Z,773.00
2024-03-12T05:33:29.004Z,774.00
2024-03-12T05:34:28.994Z,772.00
2024-03-12T05:35:28.992Z,774.00
2024-03-12T05:36:29.014Z,777.00
2024-03-12T05:37:29.031Z,779.00
2024-03-12T05:38:28.995Z,778.00
2024-03-12T05:39:29.036Z,775.00
2024-03-12T05:40:29.007Z,773.00
2024-03-12T05:41:29.015Z,773.00
2024-03-12T05:42:29.008Z,773.00
2024-03-12T05:43:29.010Z,775.00
2024-03-12T05:44:29.002Z,772.00
2024-03-12T05:45:29.167Z,770.00
2024-03-12T05:46:29.157Z,766.00
2024-03-12T05:47:29.058Z,770.00
2024-03-12T05:48:29.100Z,767.00
2024-03-12T05:49:29.028Z,767.00
2024-03-12T05:50:29.015Z,765.00
2024-03-12T05:51:29.055Z,762.00
2024-03-12T05:52:29.124Z,761.00
2024-03-12T05:53:29.034Z,761.00
2024-03-12T05:54:29.051Z,763.00
2024-03-12T05:55:29.105Z,763.00
2024-03-12T05:56:29.020Z,762.00
2024-03-12T05:57:29.026Z,761.00
2024-03-12T05:58:29.047Z,762.00
2024-03-12T05:59:29.043Z,761.00
2024-03-12T06:00:29.049Z,762.00
2024-03-12T06:01:30.163Z,764.00
2024-03-12T06:02:29.025Z,766.00
2024-03-12T06:03:29.087Z,768.00
2024-03-12T06:04:29.068Z,767.00
2024-03-12T06:05:29.050Z,765.00
2024-03-12T06:06:29.083Z,766.00
2024-03-12T06:07:29.121Z,766.00
2024-03-12T06:08:29.138Z,766.00
2024-03-12T06:09:29.054Z,767.00
2024-03-12T06:10:29.063Z,767.00
2024-03-12T06:11:29.089Z,764.00
2024-03-12T06:12:29.105Z,763.00
2024-03-12T06:13:29.100Z,767.00
2024-03-12T06:14:29.137Z,764.00
2024-03-12T06:15:29.210Z,765.00
2024-03-12T06:16:29.219Z,763.00
2024-03-12T06:17:29.293Z,762.00
2024-03-12T06:18:29.671Z,759.00
2024-03-12T06:19:29.368Z,757.00
2024-03-12T06:20:29.442Z,754.00
2024-03-12T06:21:33.070Z,753.00
2024-03-12T06:22:29.450Z,751.00
2024-03-12T06:23:29.466Z,753.00
2024-03-12T06:24:29.544Z,749.00
2024-03-12T06:25:29.480Z,752.00
2024-03-12T06:26:29.446Z,754.00
2024-03-12T06:27:29.476Z,757.00
2024-03-12T06:28:29.458Z,758.00
2024-03-12T06:29:29.470Z,757.00
2024-03-12T06:30:29.507Z,757.00
2024-03-12T06:31:29.472Z,755.00
2024-03-12T06:32:29.508Z,756.00
2024-03-12T06:33:29.521Z,755.00
2024-03-12T06:34:29.466Z,752.00
2024-03-12T06:35:29.480Z,752.00
2024-03-12T06:36:29.526Z,753.00
2024-03-12T06:37:29.493Z,752.00
2024-03-12T06:38:29.490Z,749.00
2024-03-12T06:39:29.538Z,748.00
2024-03-12T06:40:29.492Z,746.00
2024-03-12T06:41:29.486Z,742.00
2024-03-12T06:42:29.493Z,740.00
2024-03-12T06:43:29.501Z,742.00
2024-03-12T06:44:29.499Z,744.00
2024-03-12T06:45:29.588Z,743.00
2024-03-12T06:46:29.484Z,746.00
2024-03-12T06:47:29.592Z,746.00
2024-03-12T06:48:29.518Z,746.00
2024-03-12T06:49:29.498Z,746.00
2024-03-12T06:50:29.511Z,746.00
2024-03-12T06:51:29.588Z,746.00
2024-03-12T06:52:29.505Z,744.00
2024-03-12T06:53:29.504Z,744.00
2024-03-12T06:54:29.515Z,745.00
2024-03-12T06:55:29.497Z,746.00
2024-03-12T06:56:29.557Z,744.00
2024-03-12T06:57:29.517Z,741.00
2024-03-12T06:58:29.505Z,737.00
2024-03-12T06:59:29.523Z,735.00
2024-03-12T07:00:29.519Z,736.00
2024-03-12T07:01:29.556Z,736.00
2024-03-12T07:32:06.187Z,1157.00
2024-03-12T07:33:06.312Z,1226.00
2024-03-12T07:34:06.152Z,1238.00
2024-03-12T07:35:06.177Z,1234.00
2024-03-12T07:36:06.205Z,1214.00
2024-03-12T07:37:06.312Z,1204.00
2024-03-12T07:38:06.281Z,1197.00
2024-03-12T07:39:06.295Z,1180.00
2024-03-12T07:40:06.359Z,1159.00
2024-03-12T07:41:06.420Z,1146.00
2024-03-12T07:42:06.445Z,1130.00
2024-03-12T07:43:06.645Z,1186.00
2024-03-12T07:44:06.544Z,1166.00
2024-03-12T07:45:06.615Z,1145.00
2024-03-12T07:46:06.648Z,1132.00
2024-03-12T07:47:06.722Z,1117.00
2024-03-12T07:48:06.909Z,1088.00
2024-03-12T07:49:07.833Z,1082.00
2024-03-12T07:50:06.846Z,1090.00
2024-03-12T07:51:06.900Z,1095.00
2024-03-12T07:52:07.382Z,1095.00
2024-03-12T07:53:07.076Z,1091.00
2024-03-12T07:54:07.056Z,1073.00
2024-03-12T07:55:07.271Z,1041.00
2024-03-12T07:56:07.165Z,1010.00
2024-03-12T07:57:07.251Z,996.00
2024-03-12T07:58:07.350Z,999.00
2024-03-12T07:59:07.378Z,1006.00
2024-03-12T08:00:07.438Z,1008.00
2024-03-12T08:01:07.607Z,1020.00
2024-03-12T08:02:07.671Z,1028.00
2024-03-12T08:03:07.629Z,1034.00
2024-03-12T08:04:07.755Z,1034.00
2024-03-12T08:05:07.816Z,1026.00
2024-03-12T08:06:07.850Z,1028.00
2024-03-12T08:07:07.922Z,1039.00
2024-03-12T08:08:07.940Z,1034.00
2024-03-12T08:09:08.005Z,1044.00
2024-03-12T08:10:08.156Z,1065.00
2024-03-12T08:11:08.141Z,1067.00
2024-03-12T08:12:08.140Z,1072.00
2024-03-12T08:13:08.203Z,1083.00
2024-03-12T08:14:08.211Z,1086.00
2024-03-12T08:15:08.276Z,1089.00
2024-03-12T08:16:08.360Z,1096.00
2024-03-12T08:17:08.346Z,1104.00
2024-03-12T08:18:13.614Z,1112.00
2024-03-12T08:19:09.524Z,1114.00
2024-03-12T08:20:08.357Z,1122.00
2024-03-12T08:21:08.363Z,1123.00
2024-03-12T08:22:08.455Z,1132.00
2024-03-12T08:23:08.369Z,1127.00
2024-03-12T08:24:08.373Z,1129.00
2024-03-12T08:25:08.437Z,1128.00
2024-03-12T08:26:08.398Z,1121.00
2024-03-12T08:27:08.485Z,1124.00
2024-03-12T08:28:08.429Z,1123.00
2024-03-12T08:29:08.387Z,1125.00
2024-03-12T08:30:08.374Z,1125.00
2024-03-12T08:31:14.191Z,1127.00
2024-03-12T08:32:09.480Z,1124.00
2024-03-12T08:33:08.390Z,1127.00
2024-03-12T08:34:08.434Z,1124.00
2024-03-12T08:35:09.875Z,1121.00
2024-03-12T08:36:08.366Z,1128.00
2024-03-12T08:37:08.473Z,1122.00
2024-03-12T08:38:08.366Z,1118.00
2024-03-12T08:39:08.383Z,1135.00
2024-03-12T08:40:08.740Z,1175.00
2024-03-12T08:41:08.385Z,1201.00
2024-03-12T08:42:08.388Z,1265.00
2024-03-12T08:43:09.286Z,1263.00
2024-03-12T08:44:08.398Z,1245.00
2024-03-12T08:45:08.378Z,1192.00
2024-03-12T08:46:08.567Z,1136.00
2024-03-12T08:47:08.391Z,1136.00
2024-03-12T08:48:08.420Z,1115.00
2024-03-12T08:49:08.405Z,1071.00
2024-03-12T08:50:08.400Z,1062.00
2024-03-12T08:51:08.387Z,1053.00
2024-03-12T08:52:08.506Z,1040.00
2024-03-12T08:53:09.771Z,1035.00
2024-03-12T08:54:08.519Z,1102.00
2024-03-12T08:55:08.630Z,1092.00
2024-03-12T08:56:08.655Z,1103.00
2024-03-12T08:57:08.659Z,1128.00
2024-03-12T08:58:08.743Z,1113.00
2024-03-12T08:59:08.771Z,1124.00
2024-03-12T09:00:08.820Z,1110.00
2024-03-12T09:01:08.862Z,1104.00
2024-03-12T09:02:08.897Z,1098.00
2024-03-12T09:03:08.948Z,1092.00
2024-03-12T09:04:09.134Z,1098.00
2024-03-12T09:05:09.003Z,1090.00
2024-03-12T09:06:08.996Z,1090.00
2024-03-12T09:07:09.010Z,986.00
2024-03-12T09:08:09.059Z,973.00
2024-03-12T09:09:09.103Z,971.00
2024-03-12T09:10:09.161Z,971.00
2024-03-12T09:11:09.226Z,973.00
2024-03-12T09:12:09.202Z,966.00
2024-03-12T09:13:09.291Z,957.00
2024-03-12T09:14:09.277Z,948.00
2024-03-12T09:15:09.310Z,945.00
2024-03-12T09:16:09.452Z,934.00
2024-03-12T09:17:09.398Z,929.00
2024-03-12T09:18:09.455Z,926.00
2024-03-12T09:19:09.539Z,924.00
2024-03-12T09:20:09.671Z,930.00
2024-03-12T09:21:09.585Z,921.00
2024-03-12T09:22:09.700Z,917.00
2024-03-12T09:23:09.665Z,917.00
2024-03-12T09:24:09.709Z,921.00
2024-03-12T09:25:10.102Z,923.00
2024-03-12T09:26:09.825Z,937.00
2024-03-12T09:27:09.866Z,939.00
2024-03-12T09:28:09.987Z,952.00
2024-03-12T09:29:09.968Z,957.00
2024-03-12T09:30:10.043Z,957.00
2024-03-12T09:31:10.361Z,954.00
2024-03-12T09:32:10.112Z,954.00
2024-03-12T09:33:10.274Z,952.00
2024-03-12T09:34:10.270Z,956.00
2024-03-12T09:35:10.239Z,952.00
2024-03-12T09:36:10.334Z,960.00
2024-03-12T09:37:12.028Z,971.00
2024-03-12T09:38:10.597Z,972.00
2024-03-12T09:39:10.496Z,960.00
2024-03-12T09:40:10.582Z,961.00
2024-03-12T09:41:10.486Z,983.00
2024-03-12T09:42:10.553Z,919.00
2024-03-12T09:43:10.680Z,897.00
2024-03-12T09:44:10.642Z,879.00
2024-03-12T09:45:10.714Z,872.00
2024-03-12T09:46:10.774Z,861.00
2024-03-12T09:47:10.794Z,856.00
2024-03-12T09:48:10.924Z,863.00
2024-03-12T09:49:10.983Z,856.00
2024-03-12T09:50:10.978Z,849.00
2024-03-12T09:51:10.986Z,838.00
2024-03-12T09:52:11.051Z,836.00
2024-03-12T09:53:10.976Z,826.00
2024-03-12T09:54:11.017Z,778.00
2024-03-12T09:55:11.076Z,757.00
2024-03-12T09:56:11.083Z,758.00
2024-03-12T09:57:11.116Z,756.00
2024-03-12T09:58:11.215Z,757.00
2024-03-12T09:59:11.173Z,770.00
2024-03-12T10:00:11.214Z,789.00
2024-03-12T10:01:11.301Z,799.00
2024-03-12T10:02:11.522Z,819.00
2024-03-12T10:03:11.334Z,831.00
2024-03-12T10:04:11.478Z,838.00
2024-03-12T10:05:11.562Z,837.00
2024-03-12T10:06:11.385Z,838.00
2024-03-12T10:07:11.565Z,830.00
2024-03-12T10:08:11.436Z,833.00
2024-03-12T10:09:11.506Z,844.00
2024-03-12T10:10:11.632Z,846.00
2024-03-12T10:11:11.672Z,855.00
2024-03-12T10:12:11.706Z,854.00
2024-03-12T10:13:11.790Z,854.00
2024-03-12T10:14:11.791Z,847.00
2024-03-12T10:15:11.823Z,846.00
2024-03-12T10:16:11.960Z,845.00
2024-03-12T10:17:11.937Z,841.00
2024-03-12T10:18:12.077Z,841.00
2024-03-12T10:19:12.085Z,841.00
2024-03-12T10:20:12.120Z,848.00
2024-03-12T10:21:12.159Z,848.00
2024-03-12T10:22:12.333Z,839.00
2024-03-12T10:23:12.313Z,839.00
2024-03-12T10:24:12.393Z,844.00
2024-03-12T10:25:12.450Z,843.00
2024-03-12T10:26:12.547Z,842.00
2024-03-12T10:27:12.596Z,845.00
2024-03-12T10:28:12.705Z,880.00
2024-03-12T10:29:12.705Z,896.00
2024-03-12T10:30:13.313Z,908.00
2024-03-12T10:31:13.669Z,914.00
2024-03-12T10:32:12.926Z,905.00
2024-03-12T10:33:13.030Z,895.00
2024-03-12T10:34:13.256Z,895.00
2024-03-12T10:35:13.137Z,897.00
2024-03-12T10:36:13.503Z,901.00
2024-03-12T10:37:13.378Z,894.00
2024-03-12T10:38:13.334Z,885.00
2024-03-12T10:39:13.395Z,888.00
2024-03-12T10:40:13.511Z,898.00
2024-03-12T10:41:13.516Z,901.00
2024-03-12T10:42:13.590Z,921.00
2024-03-12T10:43:13.653Z,923.00
2024-03-12T10:44:13.706Z,936.00
2024-03-12T10:45:13.764Z,927.00
2024-03-12T10:46:13.862Z,927.00
2024-03-12T10:47:13.895Z,925.00
2024-03-12T10:48:13.977Z,972.00
2024-03-12T10:49:14.601Z,996.00
2024-03-12T10:50:14.092Z,954.00
2024-03-12T10:51:14.910Z,872.00
2024-03-12T10:52:14.246Z,865.00
2024-03-12T10:53:14.145Z,860.00
2024-03-12T10:54:14.187Z,842.00
2024-03-12T10:55:14.221Z,823.00
2024-03-12T10:56:16.122Z,837.00
2024-03-12T10:57:14.272Z,896.00
2024-03-12T10:58:14.364Z,884.00
2024-03-12T10:59:14.346Z,859.00
2024-03-12T11:00:14.442Z,835.00
2024-03-12T11:01:14.414Z,833.00
2024-03-12T11:02:14.450Z,828.00
2024-03-12T11:03:14.417Z,828.00
2024-03-12T11:04:14.671Z,826.00
2024-03-12T11:05:14.443Z,835.00
2024-03-12T11:06:14.467Z,845.00
2024-03-12T11:07:14.623Z,906.00
2024-03-12T11:08:14.491Z,874.00
2024-03-12T11:09:14.512Z,871.00
2024-03-12T11:10:14.610Z,864.00
2024-03-12T11:11:14.524Z,856.00
2024-03-12T11:12:14.518Z,847.00
2024-03-12T11:13:14.621Z,853.00
2024-03-12T11:40:32.345Z,869.00
2024-03-12T11:41:32.311Z,890.00
2024-03-12T11:42:32.406Z,891.00
2024-03-12T11:43:32.394Z,880.00
2024-03-12T11:44:37.448Z,872.00
2024-03-12T11:45:32.456Z,863.00
2024-03-12T11:46:32.418Z,849.00
2024-03-12T11:47:32.644Z,773.00
2024-03-12T11:48:32.445Z,800.00
2024-03-12T11:49:32.449Z,807.00
2024-03-12T11:50:32.426Z,810.00
2024-03-12T11:51:32.440Z,808.00
2024-03-12T11:52:32.444Z,923.00
2024-03-12T11:53:32.424Z,925.00
2024-03-12T11:54:32.522Z,925.00
2024-03-12T11:55:32.471Z,922.00
2024-03-12T11:56:32.484Z,916.00
2024-03-12T11:57:32.539Z,914.00
2024-03-12T11:58:32.509Z,914.00
2024-03-12T11:59:32.529Z,915.00
2024-03-12T12:00:32.574Z,911.00
2024-03-12T12:01:33.334Z,920.00
2024-03-12T12:02:32.562Z,918.00
2024-03-12T12:03:32.615Z,918.00
2024-03-12T12:04:32.576Z,922.00
2024-03-12T12:05:32.603Z,936.00
2024-03-12T12:06:32.717Z,960.00
2024-03-12T12:07:32.723Z,980.00
2024-03-12T12:08:34.176Z,1000.00
2024-03-12T12:09:32.798Z,1051.00
2024-03-12T12:10:32.756Z,1095.00
2024-03-12T12:11:32.780Z,1130.00
2024-03-12T12:12:32.830Z,1153.00
2024-03-12T12:13:32.762Z,1197.00
2024-03-12T12:14:32.769Z,1215.00
2024-03-12T12:15:32.870Z,1214.00
2024-03-12T12:16:32.765Z,1222.00
2024-03-12T12:17:32.893Z,1224.00
2024-03-12T12:18:32.822Z,1237.00
2024-03-12T12:19:38.435Z,1253.00
2024-03-12T12:20:33.798Z,1266.00
2024-03-12T12:21:32.804Z,1315.00
2024-03-12T12:22:32.789Z,1330.00
2024-03-12T12:23:32.791Z,1352.00
2024-03-12T12:24:32.888Z,1361.00
2024-03-12T12:25:32.783Z,1368.00
2024-03-12T12:26:32.783Z,1375.00
2024-03-12T12:27:32.797Z,1383.00
2024-03-12T12:28:32.799Z,1387.00
2024-03-12T12:29:32.801Z,1398.00
2024-03-12T12:30:32.886Z,1416.00
2024-03-12T12:31:32.886Z,1439.00
2024-03-12T12:32:32.973Z,1459.00
2024-03-12T12:33:33.065Z,1479.00
2024-03-12T12:34:33.109Z,1493.00
2024-03-12T12:35:33.168Z,1499.00
2024-03-12T12:36:33.256Z,1652.00
2024-03-12T12:37:33.292Z,1599.00
2024-03-12T12:38:33.337Z,1585.00
2024-03-12T12:39:43.580Z,1578.00
2024-03-12T12:40:34.453Z,1584.00
2024-03-12T12:41:33.397Z,1584.00
2024-03-12T12:42:33.428Z,1585.00
2024-03-12T12:43:33.409Z,1588.00
2024-03-12T12:44:33.423Z,1593.00
2024-03-12T12:45:33.456Z,1605.00
2024-03-12T12:46:33.429Z,1602.00
2024-03-12T12:47:33.479Z,1597.00
2024-03-12T12:48:33.470Z,1584.00
2024-03-12T12:49:33.466Z,1576.00
2024-03-12T13:22:43.251Z,826.00
2024-03-12T14:20:21.807Z,630.00
2024-03-12T14:20:47.538Z,642.00
2024-03-12T14:21:47.940Z,650.00
2024-03-12T14:22:47.712Z,663.00
2024-03-12T17:06:20.811Z,848.00
2024-03-12T17:06:49.270Z,847.00
2024-03-12T19:20:05.639Z,814.00
2024-03-12T23:00:00.664Z,775.00
2024-03-12T23:25:21.376Z,771.00
